Grove Hill, AL (36451)

7:01 PM CST on December 21, 2014 (GMT -0600)
Belview Circle | Change Station
CLOSE
Current Station
Personal Weather Station
Location: Jackson, AL
Elevation: 381 ft
Nearby Weather Stations

Elev 381 ft 31.54 °N, 87.89 °W | Updated 6 seconds ago

Overcast
Overcast
53.0 °F
Feels Like 53.0 °F
N
0.0
Wind Variable Wind from East
Gusts 0.0 mph

Today
High -- | Low -- °F
--% Chance of Precip.
Yesterday
High -- | Low -- °F
Precip. -- in
6:46 AM 4:51 PM
Waning Crescent, 0% visible
Pressure 30.04 in
Visibility 2.0 miles
Clouds Overcast 300 ft
Dew Point 53 °F
Humidity 100%
Rainfall 0.00 in
Snow Depth Not available.
UV 0 out of 12
Pollen 1.50 out of 12
Air Quality Not available.
Flu Activity Not available.
METAR KGZH 220053Z AUTO 10003KT 2SM BR OVC003 13/12 A3004 RMK AO2 CIG 002V007 SLP172 T01330122

More Conditions Fewer Conditions

Pressure 30.04 in
Visibility 2.0 miles
Clouds Overcast 300 ft
Dew Point 53 °F
Humidity 100%
Rainfall 0.00 in
Snow Depth Not available.
UV 0 out of 12
Pollen 1.50 out of 12
Air Quality Not available.
Flu Activity Not available.
METAR KGZH 220053Z AUTO 10003KT 2SM BR OVC003 13/12 A3004 RMK AO2 CIG 002V007 SLP172 T01330122

More Conditions Fewer Conditions

10-Day Weather Forecast

Almanac

Astronomy

Dec. 21, 2014 Rise Set
Actual Time
Civil Twilight
Nautical Twilight
Astronomical Twilight
Moon
Length of Visible Light
Length of Day
Tomorrow will be .
, % of the Moon is Illuminated

Today's Extremes

State Highs State Lows

Community

WunderPhotos

Upload Photos

1,779,511 photos uploaded!

WunderBlogs® & News

Nearby

Air Quality

  Air Quality AQ Index Pollutant
Not available.

Snow Depth

Station Depth Elevation

Earthquake Activity

City Distance Mag. Time & Date
Minimum magnitude displayed is 2.5.

Coastal Water Temperatures

Place Temperature

Nearby Weather Stations